Time;durP1;ratioP1;P1;durP2;ratioP2;P2;SDS_P1;SDS_P2;PMS_P1;PMS_P2;Temp;Humidity;BMP_temperature;BMP_pressure;BME280_temperature;BME280_humidity;BME280_pressure;Samples;Min_cycle;Max_cycle;Signal;HPM_P1;HPM_P2
2022/05/09 00:03:02;;;;;;;10.80;5.88;;;;;;;;;;5052208;28;20044;-71
2022/05/09 00:06:06;;;;;;;9.65;5.53;;;;;;;;;;5051830;28;20033;-72
2022/05/09 00:09:15;;;;;;;12.18;6.00;;;;;;;;;;5051482;28;20041;-72
2022/05/09 00:12:19;;;;;;;13.55;5.30;;;;;;;;;;5051661;28;20048;-73
2022/05/09 00:15:23;;;;;;;12.48;5.53;;;;;;;;;;5051553;28;20040;-72
2022/05/09 00:18:28;;;;;;;13.02;5.45;;;;;;;;;;5050615;28;20513;-72
2022/05/09 00:21:33;;;;;;;13.52;6.50;;;;;;;;;;5051732;28;20120;-72
2022/05/09 00:24:39;;;;;;;12.32;5.80;;;;;;;;;;5051740;28;20041;-72
2022/05/09 00:27:43;;;;;;;10.18;5.80;;;;;;;;;;5051656;28;20033;-72
2022/05/09 00:30:48;;;;;;;8.85;6.55;;;;;;;;;;5052157;28;20041;-71
2022/05/09 00:33:53;;;;;;;11.75;6.35;;;;;;;;;;5051443;28;20381;-72
2022/05/09 00:36:58;;;;;;;16.02;6.57;;;;;;;;;;5051775;28;20042;-73
2022/05/09 00:40:03;;;;;;;8.95;6.10;;;;;;;;;;5051578;28;20136;-72
2022/05/09 00:43:27;;;;;;;15.02;6.65;;;;;;;;;;5051566;28;20037;-72
2022/05/09 00:46:32;;;;;;;12.50;6.22;;;;;;;;;;5050669;28;20044;-72
2022/05/09 00:49:45;;;;;;;18.63;8.27;;;;;;;;;;5051205;28;20045;-72
2022/05/09 00:52:55;;;;;;;15.70;6.95;;;;;;;;;;5050983;28;20037;-72
2022/05/09 00:56:02;;;;;;;15.52;7.80;;;;;;;;;;5051244;28;20040;-72
2022/05/09 00:59:09;;;;;;;12.93;7.40;;;;;;;;;;5051143;28;20049;-72
2022/05/09 01:02:15;;;;;;;14.75;7.43;;;;;;;;;;5050805;28;20041;-72
2022/05/09 01:05:19;;;;;;;12.75;7.78;;;;;;;;;;5050855;28;20374;-72
2022/05/09 01:08:25;;;;;;;12.02;7.35;;;;;;;;;;5050669;28;20168;-72
2022/05/09 01:11:29;;;;;;;23.48;7.90;;;;;;;;;;5051037;28;20492;-72
2022/05/09 01:14:34;;;;;;;11.18;7.30;;;;;;;;;;5050139;28;20382;-72
2022/05/09 01:17:39;;;;;;;12.10;7.03;;;;;;;;;;5050844;28;20044;-72
2022/05/09 01:20:44;;;;;;;18.17;7.88;;;;;;;;;;5050664;28;20497;-73
2022/05/09 01:23:48;;;;;;;13.30;8.40;;;;;;;;;;5049857;28;20041;-72
2022/05/09 01:26:53;;;;;;;28.52;14.55;;;;;;;;;;5050863;28;20536;-72
2022/05/09 01:30:09;;;;;;;22.00;10.38;;;;;;;;;;5050574;28;20039;-72
2022/05/09 01:33:29;;;;;;;11.88;8.73;;;;;;;;;;5050530;28;20080;-72
2022/05/09 01:36:34;;;;;;;17.92;8.02;;;;;;;;;;5050581;28;20331;-72
2022/05/09 01:39:39;;;;;;;12.63;7.90;;;;;;;;;;5050755;28;20037;-72
2022/05/09 01:42:44;;;;;;;12.38;7.90;;;;;;;;;;5050176;28;20041;-72
2022/05/09 01:45:48;;;;;;;13.80;6.80;;;;;;;;;;5050413;28;20064;-72
2022/05/09 01:52:16;;;;;;;12.68;8.27;;;;;;;;;;5050369;28;20052;-72
2022/05/09 01:55:20;;;;;;;16.33;6.60;;;;;;;;;;5050562;28;20053;-72
2022/05/09 01:58:24;;;;;;;13.15;6.97;;;;;;;;;;5049750;28;20045;-73
2022/05/09 02:01:31;;;;;;;12.77;6.60;;;;;;;;;;5049512;28;20523;-73
2022/05/09 02:04:38;;;;;;;14.98;7.65;;;;;;;;;;5049828;28;20037;-73
2022/05/09 02:07:45;;;;;;;12.93;7.43;;;;;;;;;;5050400;28;20044;-72
2022/05/09 02:10:49;;;;;;;15.05;7.20;;;;;;;;;;5050408;28;20041;-73
2022/05/09 02:13:54;;;;;;;12.82;6.88;;;;;;;;;;5049311;28;20049;-72
2022/05/09 02:16:58;;;;;;;11.55;6.53;;;;;;;;;;5050334;28;20045;-72
2022/05/09 02:20:03;;;;;;;13.45;6.63;;;;;;;;;;5050418;28;20041;-73
2022/05/09 02:23:08;;;;;;;14.70;7.03;;;;;;;;;;5049255;28;20036;-72
2022/05/09 02:26:12;;;;;;;13.57;6.82;;;;;;;;;;5050247;28;20291;-72
2022/05/09 02:29:16;;;;;;;11.75;6.35;;;;;;;;;;5050402;28;20049;-73
2022/05/09 02:32:21;;;;;;;15.90;6.85;;;;;;;;;;5049910;28;20040;-72
2022/05/09 02:35:25;;;;;;;11.23;7.13;;;;;;;;;;5049301;28;20056;-73
2022/05/09 02:38:30;;;;;;;12.15;6.72;;;;;;;;;;5050338;28;20036;-73
2022/05/09 02:41:34;;;;;;;13.70;6.88;;;;;;;;;;5051372;28;20386;-71
2022/05/09 02:44:39;;;;;;;10.38;6.75;;;;;;;;;;5053372;28;20052;-72
2022/05/09 02:47:43;;;;;;;15.70;6.45;;;;;;;;;;5053730;28;20033;-72
2022/05/09 02:50:48;;;;;;;15.60;6.63;;;;;;;;;;5053148;28;20037;-72
2022/05/09 02:53:53;;;;;;;12.70;6.55;;;;;;;;;;5052203;28;20410;-73
2022/05/09 02:56:58;;;;;;;14.23;5.80;;;;;;;;;;5053955;28;20501;-72
2022/05/09 03:00:08;;;;;;;10.70;6.13;;;;;;;;;;5053412;28;20517;-72
2022/05/09 03:06:35;;;;;;;12.60;6.60;;;;;;;;;;5052973;28;20033;-72
2022/05/09 03:09:41;;;;;;;15.25;6.85;;;;;;;;;;5052094;28;20056;-71
2022/05/09 03:12:46;;;;;;;15.15;6.65;;;;;;;;;;5052007;28;20049;-71
2022/05/09 03:15:51;;;;;;;13.65;6.95;;;;;;;;;;5052741;28;20037;-72
2022/05/09 03:18:56;;;;;;;18.05;6.30;;;;;;;;;;5053027;28;20032;-72
2022/05/09 03:22:01;;;;;;;11.57;6.28;;;;;;;;;;5052564;28;20041;-72
2022/05/09 03:25:05;;;;;;;11.02;6.20;;;;;;;;;;5052833;28;20040;-72
2022/05/09 03:28:11;;;;;;;11.55;5.90;;;;;;;;;;5052933;28;20040;-72
2022/05/09 03:31:23;;;;;;;11.15;5.85;;;;;;;;;;5051971;28;20037;-72
2022/05/09 03:34:29;;;;;;;15.40;5.65;;;;;;;;;;5051826;28;20422;-72
2022/05/09 03:37:33;;;;;;;11.32;5.50;;;;;;;;;;5052690;28;20045;-72
2022/05/09 03:40:37;;;;;;;14.48;5.93;;;;;;;;;;5052667;28;20040;-72
2022/05/09 03:43:41;;;;;;;11.57;6.13;;;;;;;;;;5052719;28;20052;-72
2022/05/09 03:46:46;;;;;;;10.75;5.80;;;;;;;;;;5052619;28;20057;-71
2022/05/09 03:49:55;;;;;;;14.63;5.55;;;;;;;;;;5052227;28;20041;-71
2022/05/09 03:52:59;;;;;;;10.93;5.82;;;;;;;;;;5051338;28;20049;-73
2022/05/09 03:56:05;;;;;;;14.25;5.90;;;;;;;;;;5052551;28;20519;-71
2022/05/09 03:59:09;;;;;;;16.10;7.22;;;;;;;;;;5052172;28;20041;-74
2022/05/09 04:02:14;;;;;;;13.20;6.00;;;;;;;;;;5052277;28;20048;-73
2022/05/09 04:05:18;;;;;;;17.40;6.03;;;;;;;;;;5052065;28;20033;-72
2022/05/09 04:08:22;;;;;;;8.80;5.93;;;;;;;;;;5051095;28;20046;-72
2022/05/09 04:11:26;;;;;;;10.00;5.53;;;;;;;;;;5052009;28;20476;-72
2022/05/09 04:18:08;;;;;;;15.43;5.80;;;;;;;;;;5057139;28;20040;-73
2022/05/09 04:21:13;;;;;;;12.25;5.93;;;;;;;;;;5051785;28;20048;-73
2022/05/09 04:24:18;;;;;;;14.32;6.85;;;;;;;;;;5050821;28;20523;-71
2022/05/09 04:27:22;;;;;;;18.30;5.65;;;;;;;;;;5051868;28;20044;-71
2022/05/09 04:30:26;;;;;;;16.73;5.95;;;;;;;;;;5051803;28;20029;-72
2022/05/09 04:33:31;;;;;;;9.13;5.65;;;;;;;;;;5051289;28;20056;-72
2022/05/09 04:36:38;;;;;;;14.70;6.50;;;;;;;;;;5051760;28;20370;-72
2022/05/09 04:39:47;;;;;;;17.77;7.47;;;;;;;;;;5050648;28;20250;-72
2022/05/09 04:42:51;;;;;;;10.20;5.60;;;;;;;;;;5051545;28;20033;-71
2022/05/09 04:45:58;;;;;;;13.48;7.03;;;;;;;;;;5051527;28;20048;-72
2022/05/09 04:49:02;;;;;;;13.93;6.63;;;;;;;;;;5051340;28;20388;-72
2022/05/09 04:52:06;;;;;;;12.88;6.55;;;;;;;;;;5050541;28;20543;-72
2022/05/09 04:55:11;;;;;;;15.77;6.22;;;;;;;;;;5051327;28;20044;-72
2022/05/09 04:58:20;;;;;;;15.98;6.55;;;;;;;;;;5051048;28;20037;-72
2022/05/09 05:01:25;;;;;;;16.05;7.50;;;;;;;;;;5051184;28;20036;-72
2022/05/09 05:04:29;;;;;;;13.65;6.00;;;;;;;;;;5050253;28;20504;-63
2022/05/09 05:07:33;;;;;;;18.85;6.40;;;;;;;;;;5050914;28;20064;-61
2022/05/09 05:10:37;;;;;;;16.23;6.85;;;;;;;;;;5050666;28;20050;-61
2022/05/09 05:13:42;;;;;;;26.25;7.57;;;;;;;;;;5050595;28;20036;-61
2022/05/09 05:17:01;;;;;;;18.58;6.82;;;;;;;;;;5050556;28;20048;-60
2022/05/09 05:20:09;;;;;;;13.98;6.50;;;;;;;;;;5050722;28;20039;-62
2022/05/09 05:23:13;;;;;;;14.68;6.78;;;;;;;;;;5050506;28;20397;-61
2022/05/09 05:26:18;;;;;;;14.70;6.53;;;;;;;;;;5050422;28;20044;-61
2022/05/09 05:29:23;;;;;;;18.30;7.53;;;;;;;;;;5050763;28;20053;-61
2022/05/09 05:32:34;;;;;;;17.25;6.43;;;;;;;;;;5050796;28;20041;-62
2022/05/09 05:35:38;;;;;;;12.02;6.10;;;;;;;;;;5050713;28;20045;-62
2022/05/09 05:38:43;;;;;;;11.50;5.93;;;;;;;;;;5050720;28;20211;-62
2022/05/09 05:41:47;;;;;;;9.60;6.00;;;;;;;;;;5050352;28;20041;-62
2022/05/09 05:44:52;;;;;;;11.77;5.80;;;;;;;;;;5050283;28;20041;-62
2022/05/09 05:47:56;;;;;;;14.10;5.55;;;;;;;;;;5050380;28;20045;-62
2022/05/09 05:51:00;;;;;;;21.98;6.75;;;;;;;;;;5049914;28;20048;-62
2022/05/09 05:54:05;;;;;;;17.48;6.13;;;;;;;;;;5050295;28;20049;-62
2022/05/09 05:57:38;;;;;;;17.08;5.63;;;;;;;;;;5050435;28;20041;-62
2022/05/09 06:00:42;;;;;;;18.58;6.05;;;;;;;;;;5050191;28;20040;-63
2022/05/09 06:03:46;;;;;;;16.92;5.70;;;;;;;;;;5050682;28;20044;-62
2022/05/09 06:06:50;;;;;;;15.00;6.10;;;;;;;;;;5050220;28;20045;-63
2022/05/09 06:09:55;;;;;;;12.27;5.07;;;;;;;;;;5050291;28;20402;-63
2022/05/09 06:13:02;;;;;;;19.45;6.72;;;;;;;;;;5050027;28;20037;-62
2022/05/09 06:16:06;;;;;;;13.80;5.45;;;;;;;;;;5053269;28;20064;-65
2022/05/09 06:19:11;;;;;;;14.40;6.07;;;;;;;;;;5053019;28;20044;-61
2022/05/09 06:22:15;;;;;;;10.00;5.57;;;;;;;;;;5053554;28;20049;-63
2022/05/09 06:25:19;;;;;;;16.90;5.75;;;;;;;;;;5053760;28;20044;-63
2022/05/09 06:28:24;;;;;;;13.10;5.40;;;;;;;;;;5054077;28;20049;-63
2022/05/09 06:31:28;;;;;;;12.75;5.53;;;;;;;;;;5053232;28;20044;-63
2022/05/09 06:34:33;;;;;;;8.80;5.38;;;;;;;;;;5053589;28;20060;-63
2022/05/09 06:37:38;;;;;;;11.32;5.15;;;;;;;;;;5053464;28;20033;-63
2022/05/09 06:40:43;;;;;;;16.63;5.28;;;;;;;;;;5053367;28;20221;-63
2022/05/09 06:43:47;;;;;;;13.52;4.57;;;;;;;;;;5054019;28;20041;-63
2022/05/09 06:46:51;;;;;;;10.93;5.22;;;;;;;;;;5057524;28;20056;-63
2022/05/09 06:50:00;;;;;;;13.55;5.35;;;;;;;;;;5053321;28;20032;-63
2022/05/09 06:53:04;;;;;;;11.75;5.20;;;;;;;;;;5053292;28;20045;-63
2022/05/09 06:56:09;;;;;;;15.52;4.68;;;;;;;;;;5053149;28;20037;-63
2022/05/09 06:59:14;;;;;;;13.70;4.90;;;;;;;;;;5053399;28;20053;-63
2022/05/09 07:02:18;;;;;;;10.82;4.80;;;;;;;;;;5053025;28;20040;-63
2022/05/09 07:05:23;;;;;;;10.35;4.40;;;;;;;;;;5053096;28;20033;-63
2022/05/09 07:08:32;;;;;;;10.90;4.63;;;;;;;;;;5052953;28;20049;-62
2022/05/09 07:11:39;;;;;;;18.15;5.50;;;;;;;;;;5053081;28;20504;-63
2022/05/09 07:14:43;;;;;;;8.35;4.10;;;;;;;;;;5052916;28;20049;-63
2022/05/09 07:17:53;;;;;;;10.77;4.75;;;;;;;;;;5052054;28;20041;-63
2022/05/09 07:20:58;;;;;;;9.30;3.92;;;;;;;;;;5052864;28;20048;-63
2022/05/09 07:24:02;;;;;;;10.52;4.25;;;;;;;;;;5053118;28;20037;-65
2022/05/09 07:27:06;;;;;;;11.18;4.10;;;;;;;;;;5052173;28;20428;-64
2022/05/09 07:30:11;;;;;;;14.23;4.25;;;;;;;;;;5052952;28;20037;-67
2022/05/09 07:33:17;;;;;;;11.68;4.72;;;;;;;;;;5052639;28;20041;-62
2022/05/09 07:36:21;;;;;;;12.02;4.22;;;;;;;;;;5052640;28;20041;-63
2022/05/09 07:39:25;;;;;;;13.30;4.90;;;;;;;;;;5051715;28;20044;-64
2022/05/09 07:42:31;;;;;;;11.35;4.25;;;;;;;;;;5052407;28;20056;-64
2022/05/09 07:45:35;;;;;;;11.15;4.25;;;;;;;;;;5052666;28;20380;-63
2022/05/09 07:48:40;;;;;;;12.50;4.15;;;;;;;;;;5052277;28;20041;-63
2022/05/09 07:51:44;;;;;;;8.65;3.70;;;;;;;;;;5052152;28;20045;-62
2022/05/09 07:54:49;;;;;;;16.23;4.20;;;;;;;;;;5051847;28;20049;-62
2022/05/09 07:57:53;;;;;;;10.90;4.22;;;;;;;;;;5051893;28;20044;-62
2022/05/09 08:01:02;;;;;;;9.40;3.67;;;;;;;;;;5052068;28;20417;-63
2022/05/09 08:04:06;;;;;;;11.68;4.07;;;;;;;;;;5052241;28;20037;-64
2022/05/09 08:07:10;;;;;;;10.02;4.53;;;;;;;;;;5051875;28;20037;-63
2022/05/09 08:10:15;;;;;;;12.98;4.05;;;;;;;;;;5051918;28;20049;-63
2022/05/09 08:13:20;;;;;;;12.20;4.32;;;;;;;;;;5052024;28;20041;-63
2022/05/09 08:16:29;;;;;;;13.90;4.30;;;;;;;;;;5051988;28;20075;-63
2022/05/09 08:19:35;;;;;;;8.60;4.03;;;;;;;;;;5050866;28;20045;-63
2022/05/09 08:22:40;;;;;;;9.85;3.95;;;;;;;;;;5050398;28;20036;-63
2022/05/09 08:25:46;;;;;;;12.20;4.28;;;;;;;;;;5050764;28;20049;-64
2022/05/09 08:28:52;;;;;;;10.48;4.65;;;;;;;;;;5051032;28;20048;-63
2022/05/09 08:31:57;;;;;;;10.70;4.03;;;;;;;;;;5050965;28;20050;-64
2022/05/09 08:35:01;;;;;;;15.10;4.10;;;;;;;;;;5051059;28;20385;-64
2022/05/09 08:38:06;;;;;;;9.13;3.90;;;;;;;;;;5050762;28;20037;-63
2022/05/09 08:41:13;;;;;;;11.88;4.25;;;;;;;;;;5051609;28;20382;-63
2022/05/09 08:44:17;;;;;;;11.70;4.07;;;;;;;;;;5051610;28;20472;-63
2022/05/09 08:47:29;;;;;;;10.05;3.80;;;;;;;;;;5051587;28;20037;-63
2022/05/09 08:50:41;;;;;;;17.77;5.55;;;;;;;;;;5051246;28;20037;-62
2022/05/09 08:53:46;;;;;;;10.30;3.80;;;;;;;;;;5050984;28;20496;-62
2022/05/09 08:56:52;;;;;;;8.30;3.95;;;;;;;;;;5051121;28;20045;-63
2022/05/09 09:00:03;;;;;;;11.68;3.92;;;;;;;;;;5051001;28;20362;-62
2022/05/09 09:03:25;;;;;;;11.35;4.40;;;;;;;;;;5050960;28;20040;-62
2022/05/09 09:06:49;;;;;;;11.48;4.47;;;;;;;;;;5051283;28;20048;-62
2022/05/09 09:09:53;;;;;;;13.98;4.13;;;;;;;;;;5050767;28;20053;-63
2022/05/09 09:12:58;;;;;;;9.95;3.75;;;;;;;;;;5050023;28;20037;-62
2022/05/09 09:16:08;;;;;;;14.93;4.25;;;;;;;;;;5051040;28;20049;-62
2022/05/09 09:19:16;;;;;;;12.30;3.75;;;;;;;;;;5050347;28;20033;-63
2022/05/09 09:22:30;;;;;;;9.35;3.85;;;;;;;;;;5050540;28;20045;-63
2022/05/09 09:25:53;;;;;;;12.48;4.80;;;;;;;;;;5050851;28;20485;-63
2022/05/09 09:29:00;;;;;;;11.88;4.25;;;;;;;;;;5050724;28;20045;-63
2022/05/09 09:32:08;;;;;;;8.65;3.80;;;;;;;;;;5050978;28;20054;-63
2022/05/09 09:35:35;;;;;;;15.07;3.92;;;;;;;;;;5050436;28;20145;-63
2022/05/09 09:38:41;;;;;;;14.02;3.90;;;;;;;;;;5045635;28;20374;-62
2022/05/09 09:41:46;;;;;;;10.43;4.28;;;;;;;;;;5050431;28;20052;-63
2022/05/09 09:44:53;;;;;;;15.98;4.13;;;;;;;;;;5050838;28;20033;-63
2022/05/09 09:48:20;;;;;;;12.98;4.05;;;;;;;;;;5050947;28;20043;-62
2022/05/09 09:51:24;;;;;;;11.50;4.10;;;;;;;;;;5054533;28;20048;-63
2022/05/09 09:54:32;;;;;;;14.32;3.97;;;;;;;;;;5054499;28;20061;-62
2022/05/09 09:57:38;;;;;;;14.20;4.15;;;;;;;;;;5054295;28;20036;-62
2022/05/09 10:00:42;;;;;;;20.23;4.85;;;;;;;;;;5054289;28;20494;-63
2022/05/09 10:03:48;;;;;;;10.13;4.30;;;;;;;;;;5054330;28;20041;-62
2022/05/09 10:06:55;;;;;;;10.20;3.60;;;;;;;;;;5054351;28;20033;-63
2022/05/09 10:10:00;;;;;;;10.23;4.10;;;;;;;;;;5053871;28;20418;-64
2022/05/09 10:13:17;;;;;;;11.45;4.47;;;;;;;;;;5054078;28;20040;-65
2022/05/09 10:16:21;;;;;;;11.65;3.88;;;;;;;;;;5054199;28;20056;-62
2022/05/09 10:19:30;;;;;;;8.52;3.80;;;;;;;;;;5053837;28;20041;-62
2022/05/09 10:26:02;;;;;;;15.88;4.50;;;;;;;;;;5054062;28;20033;-64
2022/05/09 10:29:14;;;;;;;11.82;4.78;;;;;;;;;;5053718;28;20033;-64
2022/05/09 10:32:23;;;;;;;11.52;4.20;;;;;;;;;;5053893;28;20045;-64
2022/05/09 10:35:34;;;;;;;10.70;3.80;;;;;;;;;;5053652;28;20049;-65
2022/05/09 10:38:42;;;;;;;10.77;3.80;;;;;;;;;;5053761;28;20044;-65
2022/05/09 10:41:49;;;;;;;12.25;4.35;;;;;;;;;;5053874;28;20029;-65
2022/05/09 10:45:04;;;;;;;10.68;3.40;;;;;;;;;;5053721;28;20050;-64
2022/05/09 10:48:28;;;;;;;9.25;3.28;;;;;;;;;;5053659;28;20040;-64
2022/05/09 10:51:45;;;;;;;4.97;2.78;;;;;;;;;;5053514;28;20056;-64
2022/05/09 10:55:15;;;;;;;10.38;3.13;;;;;;;;;;5053153;28;20049;-64
2022/05/09 10:58:30;;;;;;;9.00;2.90;;;;;;;;;;5053134;28;20033;-64
2022/05/09 11:01:35;;;;;;;6.13;2.92;;;;;;;;;;5051879;28;20052;-66
2022/05/09 11:04:40;;;;;;;8.25;3.33;;;;;;;;;;5053228;28;20033;-64
2022/05/09 11:07:51;;;;;;;7.45;2.80;;;;;;;;;;5053057;28;20045;-64
2022/05/09 11:11:00;;;;;;;15.20;5.20;;;;;;;;;;5053371;28;20041;-64
2022/05/09 11:14:12;;;;;;;7.18;4.00;;;;;;;;;;5053245;28;20404;-64
2022/05/09 11:17:34;;;;;;;11.30;4.30;;;;;;;;;;5053216;28;20033;-64
2022/05/09 11:20:43;;;;;;;14.88;4.38;;;;;;;;;;5053296;28;20596;-64
2022/05/09 11:23:50;;;;;;;9.45;4.18;;;;;;;;;;5053146;28;20048;-64
2022/05/09 11:26:58;;;;;;;13.38;4.63;;;;;;;;;;5053330;28;20476;-64
2022/05/09 11:30:08;;;;;;;10.95;5.80;;;;;;;;;;5052893;28;20048;-64
2022/05/09 11:33:17;;;;;;;8.80;4.63;;;;;;;;;;5053020;28;20037;-64
2022/05/09 11:36:22;;;;;;;10.38;4.80;;;;;;;;;;5052731;28;20045;-64
2022/05/09 11:39:39;;;;;;;10.95;4.53;;;;;;;;;;5052270;28;20044;-64
2022/05/09 11:46:34;;;;;;;10.82;3.97;;;;;;;;;;5052800;28;20044;-64
2022/05/09 11:50:03;;;;;;;10.25;4.32;;;;;;;;;;5054702;28;20541;-64
2022/05/09 11:53:08;;;;;;;13.57;4.63;;;;;;;;;;5051726;28;20037;-64
2022/05/09 11:56:13;;;;;;;11.30;4.80;;;;;;;;;;5052422;28;20512;-64
2022/05/09 11:59:28;;;;;;;11.95;5.28;;;;;;;;;;5052435;28;20051;-64
2022/05/09 12:02:50;;;;;;;11.32;4.70;;;;;;;;;;5052789;28;20041;-64
2022/05/09 12:06:00;;;;;;;12.20;4.63;;;;;;;;;;5052635;28;20041;-64
2022/05/09 12:09:09;;;;;;;10.35;3.78;;;;;;;;;;5052171;28;20064;-64
2022/05/09 12:12:33;;;;;;;11.15;4.80;;;;;;;;;;5051964;28;20070;-64
2022/05/09 12:15:40;;;;;;;10.82;4.80;;;;;;;;;;5052025;28;20068;-64
2022/05/09 12:19:10;;;;;;;10.02;4.40;;;;;;;;;;5052469;28;20049;-64
2022/05/09 12:22:17;;;;;;;8.45;4.20;;;;;;;;;;5051554;28;20461;-63
2022/05/09 12:25:43;;;;;;;9.48;4.20;;;;;;;;;;5052022;28;20037;-64
2022/05/09 12:28:48;;;;;;;9.95;4.20;;;;;;;;;;5052345;28;20128;-65
2022/05/09 12:32:04;;;;;;;8.38;4.18;;;;;;;;;;5051515;28;20089;-64
2022/05/09 12:35:09;;;;;;;7.38;4.28;;;;;;;;;;5051967;28;20410;-64
2022/05/09 12:38:14;;;;;;;9.45;4.25;;;;;;;;;;5051700;28;20374;-62
2022/05/09 12:41:23;;;;;;;8.07;3.83;;;;;;;;;;5051257;28;20037;-65
2022/05/09 12:44:36;;;;;;;12.40;4.55;;;;;;;;;;5051781;28;20477;-64
2022/05/09 12:47:41;;;;;;;8.52;3.95;;;;;;;;;;5050474;28;20059;-63
2022/05/09 12:50:46;;;;;;;12.20;4.13;;;;;;;;;;5051539;28;20184;-65
2022/05/09 12:53:51;;;;;;;6.72;4.10;;;;;;;;;;5051301;28;20033;-65
2022/05/09 12:56:56;;;;;;;11.80;4.57;;;;;;;;;;5050440;28;20041;-64
2022/05/09 13:00:07;;;;;;;8.90;4.43;;;;;;;;;;5051205;28;20037;-65
2022/05/09 13:03:12;;;;;;;;;;;;;;;;;;5051418;28;20037;-65
2022/05/09 13:06:19;;;;;;;6.97;3.65;;;;;;;;;;5051037;28;20375;-65
2022/05/09 13:09:25;;;;;;;10.15;4.25;;;;;;;;;;5050748;28;20496;-65
2022/05/09 13:12:42;;;;;;;9.85;4.45;;;;;;;;;;5050715;28;20072;-65
2022/05/09 13:15:46;;;;;;;7.65;4.32;;;;;;;;;;5050891;28;20044;-65
2022/05/09 13:18:51;;;;;;;11.13;4.25;;;;;;;;;;5051057;28;20037;-63
2022/05/09 13:21:56;;;;;;;12.00;3.92;;;;;;;;;;5050288;28;20043;-63
2022/05/09 13:25:05;;;;;;;9.30;4.57;;;;;;;;;;5050301;28;20041;-63
2022/05/09 13:28:11;;;;;;;8.18;4.10;;;;;;;;;;5050727;28;20041;-63
2022/05/09 13:31:35;;;;;;;14.13;4.63;;;;;;;;;;5050408;28;20037;-62
2022/05/09 13:34:45;;;;;;;15.40;4.20;;;;;;;;;;5050571;28;20495;-63
2022/05/09 13:37:52;;;;;;;11.15;4.68;;;;;;;;;;5050460;28;20037;-63
2022/05/09 13:41:06;;;;;;;12.75;4.75;;;;;;;;;;5050772;28;20046;-63
2022/05/09 13:44:12;;;;;;;11.95;5.20;;;;;;;;;;5050570;28;20523;-63
2022/05/09 13:47:18;;;;;;;15.45;5.10;;;;;;;;;;5050526;28;20044;-68
2022/05/09 13:50:42;;;;;;;9.27;4.63;;;;;;;;;;5049632;28;20051;-64
2022/05/09 13:53:49;;;;;;;13.57;4.72;;;;;;;;;;5050183;28;20041;-67
2022/05/09 13:57:11;;;;;;;10.10;5.10;;;;;;;;;;5050556;28;20053;-63
2022/05/09 14:00:20;;;;;;;14.68;5.25;;;;;;;;;;5050179;28;20044;-62
2022/05/09 14:03:35;;;;;;;11.40;5.38;;;;;;;;;;5049828;28;20044;-62
2022/05/09 14:06:40;;;;;;;15.68;6.43;;;;;;;;;;5050455;28;20029;-65
2022/05/09 14:09:44;;;;;;;13.90;6.57;;;;;;;;;;5050134;28;20064;-66
2022/05/09 14:12:48;;;;;;;14.30;6.47;;;;;;;;;;5050204;28;20393;-67
2022/05/09 14:15:57;;;;;;;18.98;7.80;;;;;;;;;;5050059;28;20054;-65
2022/05/09 14:19:03;;;;;;;;;;;;;;;;;;5050821;28;20064;-65
2022/05/09 14:22:13;;;;;;;20.38;7.93;;;;;;;;;;5050345;28;19915;-65
2022/05/09 14:32:40;;;;;;;23.67;7.10;;;;;;;;;;5050223;28;20033;-64
2022/05/09 14:35:48;;;;;;;14.73;6.95;;;;;;;;;;5050904;28;20059;-65
2022/05/09 14:38:59;;;;;;;19.48;7.10;;;;;;;;;;5053533;28;20033;-64
2022/05/09 14:42:14;;;;;;;16.58;6.13;;;;;;;;;;5052553;28;20052;-65
2022/05/09 14:45:23;;;;;;;13.55;5.88;;;;;;;;;;5053226;28;20046;-63
2022/05/09 14:48:32;;;;;;;18.92;6.65;;;;;;;;;;5053531;28;20045;-65
2022/05/09 14:51:36;;;;;;;16.45;6.78;;;;;;;;;;5053142;28;20040;-64
2022/05/09 14:54:43;;;;;;;23.75;6.90;;;;;;;;;;5053385;28;20500;-64
2022/05/09 14:57:54;;;;;;;12.52;6.68;;;;;;;;;;5053342;28;20040;-64
2022/05/09 15:01:03;;;;;;;18.85;5.60;;;;;;;;;;5052522;28;20052;-64
2022/05/09 15:04:07;;;;;;;28.08;6.03;;;;;;;;;;5053365;28;20052;-64
2022/05/09 15:07:11;;;;;;;17.17;5.18;;;;;;;;;;5053534;28;20037;-63
2022/05/09 15:10:16;;;;;;;18.35;5.30;;;;;;;;;;5052868;28;20041;-64
2022/05/09 15:13:21;;;;;;;16.33;5.55;;;;;;;;;;5053357;28;20397;-63
2022/05/09 15:16:27;;;;;;;11.65;5.60;;;;;;;;;;5053285;28;20060;-63
2022/05/09 15:19:31;;;;;;;15.95;4.75;;;;;;;;;;5052921;28;20029;-63
2022/05/09 15:22:36;;;;;;;14.65;5.00;;;;;;;;;;5053073;28;20045;-63
2022/05/09 15:25:44;;;;;;;10.07;4.45;;;;;;;;;;5052973;28;20124;-63
2022/05/09 15:28:49;;;;;;;14.85;4.20;;;;;;;;;;5052924;28;20042;-63
2022/05/09 15:31:54;;;;;;;15.68;4.85;;;;;;;;;;5052710;28;20404;-64
2022/05/09 15:34:58;;;;;;;19.90;5.05;;;;;;;;;;5052425;28;20041;-64
2022/05/09 15:38:07;;;;;;;17.08;4.70;;;;;;;;;;5051827;28;20339;-64
2022/05/09 15:41:14;;;;;;;13.55;4.53;;;;;;;;;;5052744;28;20045;-64
2022/05/09 15:44:20;;;;;;;16.50;4.22;;;;;;;;;;5052495;28;20048;-64
2022/05/09 15:47:25;;;;;;;21.58;4.90;;;;;;;;;;5052036;28;20048;-64
2022/05/09 15:50:29;;;;;;;15.57;4.88;;;;;;;;;;5052383;28;20615;-64
2022/05/09 15:53:35;;;;;;;21.77;5.90;;;;;;;;;;5052690;28;20048;-64
2022/05/09 15:56:42;;;;;;;19.33;5.07;;;;;;;;;;5051379;28;20536;-64
2022/05/09 15:59:46;;;;;;;12.52;4.55;;;;;;;;;;5052231;28;20046;-64
2022/05/09 16:02:51;;;;;;;17.40;4.68;;;;;;;;;;5052565;28;20041;-64
2022/05/09 16:12:43;;;;;;;14.57;4.75;;;;;;;;;;5051737;28;20041;-64
2022/05/09 16:15:47;;;;;;;13.15;5.13;;;;;;;;;;5051691;28;20159;-63
2022/05/09 16:18:52;;;;;;;13.75;5.43;;;;;;;;;;5051565;28;20039;-64
2022/05/09 16:21:57;;;;;;;11.98;5.30;;;;;;;;;;5051799;28;20052;-64
2022/05/09 16:25:03;;;;;;;15.73;5.57;;;;;;;;;;5051553;28;20037;-63
2022/05/09 16:28:13;;;;;;;12.35;5.00;;;;;;;;;;5051214;28;20045;-63
2022/05/09 16:31:23;;;;;;;17.15;5.90;;;;;;;;;;5051188;28;20658;-66
2022/05/09 16:34:28;;;;;;;16.92;6.20;;;;;;;;;;5051455;28;20047;-66
2022/05/09 16:37:32;;;;;;;16.98;6.78;;;;;;;;;;5051320;28;20044;-65
2022/05/09 16:40:40;;;;;;;19.83;5.97;;;;;;;;;;5051369;28;20041;-66
2022/05/09 16:43:44;;;;;;;17.30;6.07;;;;;;;;;;5051040;28;20041;-64
2022/05/09 16:46:49;;;;;;;14.32;5.88;;;;;;;;;;5051449;28;20044;-64
2022/05/09 16:49:53;;;;;;;11.63;5.90;;;;;;;;;;5051016;28;20513;-64
2022/05/09 16:52:58;;;;;;;14.45;7.75;;;;;;;;;;5050755;28;20041;-63
2022/05/09 16:56:02;;;;;;;14.02;7.50;;;;;;;;;;5050872;28;20049;-64
2022/05/09 16:59:06;;;;;;;18.38;6.75;;;;;;;;;;5050529;28;20033;-64
2022/05/09 17:02:12;;;;;;;16.40;5.55;;;;;;;;;;5051097;28;20037;-64
2022/05/09 17:05:17;;;;;;;13.23;5.80;;;;;;;;;;5050914;28;20033;-64
2022/05/09 17:08:21;;;;;;;17.23;6.25;;;;;;;;;;5049730;28;20059;-63
2022/05/09 17:11:31;;;;;;;11.27;5.20;;;;;;;;;;5050701;28;20065;-64
2022/05/09 17:14:39;;;;;;;12.63;6.05;;;;;;;;;;5050840;28;20036;-64
2022/05/09 17:17:45;;;;;;;14.05;6.47;;;;;;;;;;5051073;28;20051;-64
2022/05/09 17:20:49;;;;;;;17.30;6.53;;;;;;;;;;5053259;28;20041;-63
2022/05/09 17:23:53;;;;;;;19.98;9.27;;;;;;;;;;5050656;28;20046;-63
2022/05/09 17:27:00;;;;;;;15.57;7.60;;;;;;;;;;5049961;28;20040;-63
2022/05/09 17:30:05;;;;;;;19.58;9.23;;;;;;;;;;5050663;28;20048;-64
2022/05/09 17:33:09;;;;;;;21.02;8.02;;;;;;;;;;5050928;28;20366;-64
2022/05/09 17:39:37;;;;;;;17.85;8.60;;;;;;;;;;5050396;28;20485;-64
2022/05/09 17:42:42;;;;;;;21.60;10.00;;;;;;;;;;5050365;28;20382;-64
2022/05/09 17:45:46;;;;;;;23.00;9.70;;;;;;;;;;5050587;28;20040;-63
2022/05/09 17:48:50;;;;;;;19.42;8.02;;;;;;;;;;5050304;28;20041;-64
2022/05/09 17:51:55;;;;;;;19.25;8.10;;;;;;;;;;5050285;28;20040;-63
2022/05/09 17:54:59;;;;;;;21.05;9.25;;;;;;;;;;5050081;28;20052;-64
2022/05/09 17:58:06;;;;;;;15.75;7.93;;;;;;;;;;5050440;28;20037;-63
2022/05/09 18:01:13;;;;;;;18.23;6.65;;;;;;;;;;5050092;28;20044;-64
2022/05/09 18:04:17;;;;;;;25.08;7.43;;;;;;;;;;5050388;28;20417;-64
2022/05/09 18:07:21;;;;;;;15.20;5.85;;;;;;;;;;5049807;28;20037;-64
2022/05/09 18:10:26;;;;;;;17.05;7.15;;;;;;;;;;5049863;28;20041;-64
2022/05/09 18:13:33;;;;;;;17.40;7.25;;;;;;;;;;5054179;28;20045;-64
2022/05/09 18:16:38;;;;;;;17.50;6.78;;;;;;;;;;5053877;28;20053;-65
2022/05/09 18:19:42;;;;;;;16.35;7.70;;;;;;;;;;5053858;28;20374;-64
2022/05/09 18:22:48;;;;;;;18.80;8.73;;;;;;;;;;5053958;28;20041;-65
2022/05/09 18:25:53;;;;;;;21.48;8.20;;;;;;;;;;5054193;28;20050;-64
2022/05/09 18:28:57;;;;;;;19.95;7.50;;;;;;;;;;5054204;28;20041;-64
2022/05/09 18:32:01;;;;;;;17.63;6.85;;;;;;;;;;5053843;28;20045;-64
2022/05/09 18:35:09;;;;;;;22.15;7.32;;;;;;;;;;5053750;28;20037;-64
2022/05/09 18:38:21;;;;;;;20.42;7.65;;;;;;;;;;5053926;28;20064;-64
2022/05/09 18:41:25;;;;;;;22.25;9.55;;;;;;;;;;5053192;28;20041;-64
2022/05/09 18:44:30;;;;;;;41.55;20.35;;;;;;;;;;5053601;28;20045;-65
2022/05/09 18:47:38;;;;;;;39.70;16.63;;;;;;;;;;5053701;28;20116;-65
2022/05/09 18:54:05;;;;;;;16.95;8.70;;;;;;;;;;5053710;28;20048;-65
2022/05/09 18:57:09;;;;;;;27.98;12.75;;;;;;;;;;5053446;28;20052;-65
2022/05/09 19:00:16;;;;;;;32.30;14.20;;;;;;;;;;5053615;28;20048;-65
2022/05/09 19:03:20;;;;;;;38.08;17.27;;;;;;;;;;5053200;28;20072;-66
2022/05/09 19:06:25;;;;;;;33.42;11.60;;;;;;;;;;5053463;28;20063;-66